sensor_id;sensor_type;location;lat;lon;timestamp;pressure;altitude;pressure_sealevel;temperature;humidity
11049;BME280;5577;42.706;23.160;2023-05-03T00:00:20;94379.69;;;12.37;57.13
11049;BME280;5577;42.706;23.160;2023-05-03T00:03:03;94385.69;;;12.34;57.37
11049;BME280;5577;42.706;23.160;2023-05-03T00:05:49;94358.72;;;12.13;56.76
11049;BME280;5577;42.706;23.160;2023-05-03T00:08:33;94398.53;;;12.32;57.06
11049;BME280;5577;42.706;23.160;2023-05-03T00:11:17;94405.41;;;12.33;56.71
11049;BME280;5577;42.706;23.160;2023-05-03T00:14:01;94401.19;;;12.32;57.02
11049;BME280;5577;42.706;23.160;2023-05-03T00:16:45;94402.66;;;12.30;57.90
11049;BME280;5577;42.706;23.160;2023-05-03T00:19:29;94398.06;;;12.27;57.16
11049;BME280;5577;42.706;23.160;2023-05-03T00:22:16;94346.50;;;11.90;57.25
11049;BME280;5577;42.706;23.160;2023-05-03T00:25:00;94407.13;;;12.26;57.54
11049;BME280;5577;42.706;23.160;2023-05-03T00:27:44;94402.09;;;12.21;56.43
11049;BME280;5577;42.706;23.160;2023-05-03T00:30:28;94420.19;;;12.15;56.71
11049;BME280;5577;42.706;23.160;2023-05-03T00:33:11;94421.25;;;12.11;56.81
11049;BME280;5577;42.706;23.160;2023-05-03T00:35:55;94407.53;;;12.09;57.14
11049;BME280;5577;42.706;23.160;2023-05-03T00:38:40;94418.69;;;11.99;57.06
11049;BME280;5577;42.706;23.160;2023-05-03T00:41:25;94413.66;;;11.94;57.61
11049;BME280;5577;42.706;23.160;2023-05-03T00:44:09;94377.69;;;11.77;57.44
11049;BME280;5577;42.706;23.160;2023-05-03T00:46:54;94393.75;;;11.84;58.18
11049;BME280;5577;42.706;23.160;2023-05-03T00:49:38;94399.31;;;11.79;57.84
11049;BME280;5577;42.706;23.160;2023-05-03T00:52:22;94396.25;;;11.77;58.32
11049;BME280;5577;42.706;23.160;2023-05-03T00:55:07;94397.34;;;11.76;58.80
11049;BME280;5577;42.706;23.160;2023-05-03T00:57:52;94398.38;;;11.72;58.49
11049;BME280;5577;42.706;23.160;2023-05-03T01:00:36;94385.41;;;11.67;58.69
11049;BME280;5577;42.706;23.160;2023-05-03T01:03:20;94386.09;;;11.63;58.36
11049;BME280;5577;42.706;23.160;2023-05-03T01:06:23;94385.56;;;11.58;57.94
11049;BME280;5577;42.706;23.160;2023-05-03T01:09:22;94379.75;;;11.52;58.28
11049;BME280;5577;42.706;23.160;2023-05-03T01:18:02;94346.91;;;11.22;58.34
11049;BME280;5577;42.706;23.160;2023-05-03T01:20:51;94369.44;;;11.32;58.67
11049;BME280;5577;42.706;23.160;2023-05-03T01:23:41;94374.25;;;11.26;58.30
11049;BME280;5577;42.706;23.160;2023-05-03T01:26:26;94378.59;;;11.19;58.48
11049;BME280;5577;42.706;23.160;2023-05-03T01:29:10;94373.22;;;11.15;58.29
11049;BME280;5577;42.706;23.160;2023-05-03T01:31:59;94382.63;;;11.13;58.68
11049;BME280;5577;42.706;23.160;2023-05-03T01:34:50;94371.94;;;11.09;58.55
11049;BME280;5577;42.706;23.160;2023-05-03T01:37:38;94375.72;;;11.08;58.87
11049;BME280;5577;42.706;23.160;2023-05-03T01:40:22;94377.25;;;11.09;59.22
11049;BME280;5577;42.706;23.160;2023-05-03T01:43:12;94371.59;;;11.11;58.65
11049;BME280;5577;42.706;23.160;2023-05-03T01:45:58;94359.03;;;11.08;58.80
11049;BME280;5577;42.706;23.160;2023-05-03T01:48:42;94376.47;;;11.09;58.97
11049;BME280;5577;42.706;23.160;2023-05-03T01:51:26;94352.63;;;10.93;59.92
11049;BME280;5577;42.706;23.160;2023-05-03T01:54:10;94323.41;;;10.74;59.49
11049;BME280;5577;42.706;23.160;2023-05-03T01:56:54;94371.59;;;11.11;59.32
11049;BME280;5577;42.706;23.160;2023-05-03T01:59:39;94365.88;;;11.09;58.52
11049;BME280;5577;42.706;23.160;2023-05-03T02:02:23;94364.84;;;11.13;58.72
11049;BME280;5577;42.706;23.160;2023-05-03T02:05:08;94366.03;;;11.16;59.04
11049;BME280;5577;42.706;23.160;2023-05-03T02:07:52;94352.72;;;11.12;59.12
11049;BME280;5577;42.706;23.160;2023-05-03T02:10:36;94364.75;;;11.10;58.80
11049;BME280;5577;42.706;23.160;2023-05-03T02:13:20;94374.41;;;11.02;59.35
11049;BME280;5577;42.706;23.160;2023-05-03T02:16:04;94359.66;;;11.01;59.53
11049;BME280;5577;42.706;23.160;2023-05-03T02:18:48;94366.38;;;10.99;60.03
11049;BME280;5577;42.706;23.160;2023-05-03T02:21:36;94357.84;;;10.90;60.39
11049;BME280;5577;42.706;23.160;2023-05-03T02:24:20;94349.38;;;10.84;60.47
11049;BME280;5577;42.706;23.160;2023-05-03T02:27:07;94352.72;;;10.81;60.88
11049;BME280;5577;42.706;23.160;2023-05-03T02:29:51;94357.84;;;10.74;61.40
11049;BME280;5577;42.706;23.160;2023-05-03T02:32:36;94367.31;;;10.75;61.26
11049;BME280;5577;42.706;23.160;2023-05-03T02:35:20;94358.41;;;10.68;61.72
11049;BME280;5577;42.706;23.160;2023-05-03T02:38:04;94354.22;;;10.67;61.87
11049;BME280;5577;42.706;23.160;2023-05-03T02:40:47;94354.84;;;10.60;62.39
11049;BME280;5577;42.706;23.160;2023-05-03T02:43:32;94360.13;;;10.60;62.46
11049;BME280;5577;42.706;23.160;2023-05-03T02:46:15;94367.88;;;10.53;62.69
11049;BME280;5577;42.706;23.160;2023-05-03T02:48:59;94388.81;;;10.58;62.97
11049;BME280;5577;42.706;23.160;2023-05-03T02:51:43;94392.56;;;10.57;63.37
11049;BME280;5577;42.706;23.160;2023-05-03T02:54:27;94364.75;;;10.36;63.10
11049;BME280;5577;42.706;23.160;2023-05-03T02:57:11;94368.56;;;10.50;62.88
11049;BME280;5577;42.706;23.160;2023-05-03T02:59:55;94373.75;;;10.47;62.78
11049;BME280;5577;42.706;23.160;2023-05-03T03:02:40;94377.34;;;10.54;63.84
11049;BME280;5577;42.706;23.160;2023-05-03T03:05:24;94364.03;;;10.51;64.35
11049;BME280;5577;42.706;23.160;2023-05-03T03:08:08;94368.91;;;10.49;64.10
11049;BME280;5577;42.706;23.160;2023-05-03T03:10:52;94378.19;;;10.43;64.84
11049;BME280;5577;42.706;23.160;2023-05-03T03:13:36;94380.50;;;10.44;64.94
11049;BME280;5577;42.706;23.160;2023-05-03T03:16:22;94379.97;;;10.39;65.03
11049;BME280;5577;42.706;23.160;2023-05-03T03:19:06;94377.25;;;10.35;65.54
11049;BME280;5577;42.706;23.160;2023-05-03T03:21:50;94387.16;;;10.38;66.32
11049;BME280;5577;42.706;23.160;2023-05-03T03:24:34;94387.56;;;10.40;65.16
11049;BME280;5577;42.706;23.160;2023-05-03T03:27:18;94391.41;;;10.43;65.90
11049;BME280;5577;42.706;23.160;2023-05-03T03:30:04;94390.06;;;10.49;65.24
11049;BME280;5577;42.706;23.160;2023-05-03T03:32:51;94388.28;;;10.53;65.16
11049;BME280;5577;42.706;23.160;2023-05-03T03:35:36;94393.91;;;10.51;65.19
11049;BME280;5577;42.706;23.160;2023-05-03T03:38:20;94401.44;;;10.49;66.07
11049;BME280;5577;42.706;23.160;2023-05-03T03:41:04;94399.47;;;10.46;65.58
11049;BME280;5577;42.706;23.160;2023-05-03T03:43:48;94401.66;;;10.44;66.03
11049;BME280;5577;42.706;23.160;2023-05-03T03:46:33;94399.94;;;10.36;66.20
11049;BME280;5577;42.706;23.160;2023-05-03T03:49:17;94396.81;;;10.46;66.55
11049;BME280;5577;42.706;23.160;2023-05-03T03:52:01;94387.22;;;10.42;66.86
11049;BME280;5577;42.706;23.160;2023-05-03T03:54:45;94399.66;;;10.53;67.23
11049;BME280;5577;42.706;23.160;2023-05-03T03:57:29;94395.09;;;10.54;67.03
11049;BME280;5577;42.706;23.160;2023-05-03T04:00:14;94405.16;;;10.48;67.55
11049;BME280;5577;42.706;23.160;2023-05-03T04:02:58;94409.78;;;10.51;66.39
11049;BME280;5577;42.706;23.160;2023-05-03T04:05:42;94407.25;;;10.55;67.39
11049;BME280;5577;42.706;23.160;2023-05-03T04:08:26;94416.28;;;10.54;66.25
11049;BME280;5577;42.706;23.160;2023-05-03T04:11:10;94409.13;;;10.54;67.23
11049;BME280;5577;42.706;23.160;2023-05-03T04:13:58;94408.53;;;10.45;66.24
11049;BME280;5577;42.706;23.160;2023-05-03T04:16:42;94415.09;;;10.51;66.13
11049;BME280;5577;42.706;23.160;2023-05-03T04:19:26;94393.31;;;10.42;66.43
11049;BME280;5577;42.706;23.160;2023-05-03T04:22:11;94409.47;;;10.53;66.23
11049;BME280;5577;42.706;23.160;2023-05-03T04:24:55;94418.59;;;10.55;67.07
11049;BME280;5577;42.706;23.160;2023-05-03T04:27:39;94420.16;;;10.56;67.61
11049;BME280;5577;42.706;23.160;2023-05-03T04:30:23;94431.50;;;10.57;66.64
11049;BME280;5577;42.706;23.160;2023-05-03T04:33:08;94442.94;;;10.61;67.02
11049;BME280;5577;42.706;23.160;2023-05-03T04:35:53;94446.38;;;10.61;67.03
11049;BME280;5577;42.706;23.160;2023-05-03T04:38:37;94449.81;;;10.62;67.15
11049;BME280;5577;42.706;23.160;2023-05-03T04:41:21;94449.13;;;10.65;66.82
11049;BME280;5577;42.706;23.160;2023-05-03T04:44:07;94450.66;;;10.66;67.10
11049;BME280;5577;42.706;23.160;2023-05-03T04:46:51;94445.38;;;10.66;67.11
11049;BME280;5577;42.706;23.160;2023-05-03T04:49:35;94456.81;;;10.70;68.88
11049;BME280;5577;42.706;23.160;2023-05-03T04:52:19;94454.69;;;10.75;69.10
11049;BME280;5577;42.706;23.160;2023-05-03T04:55:03;94459.56;;;10.73;67.70
11049;BME280;5577;42.706;23.160;2023-05-03T04:57:48;94457.25;;;10.72;67.65
11049;BME280;5577;42.706;23.160;2023-05-03T05:00:32;94465.63;;;10.74;68.37
11049;BME280;5577;42.706;23.160;2023-05-03T05:03:17;94472.03;;;10.73;67.51
11049;BME280;5577;42.706;23.160;2023-05-03T05:06:01;94470.25;;;10.77;68.71
11049;BME280;5577;42.706;23.160;2023-05-03T05:08:45;94393.09;;;10.08;67.84
11049;BME280;5577;42.706;23.160;2023-05-03T05:11:30;94489.44;;;10.74;68.83
11049;BME280;5577;42.706;23.160;2023-05-03T05:14:14;94492.06;;;10.86;70.06
11049;BME280;5577;42.706;23.160;2023-05-03T05:16:58;94474.69;;;10.73;72.17
11049;BME280;5577;42.706;23.160;2023-05-03T05:19:42;94490.91;;;10.71;74.27
11049;BME280;5577;42.706;23.160;2023-05-03T05:22:26;94452.94;;;10.40;79.03
11049;BME280;5577;42.706;23.160;2023-05-03T05:25:10;94495.34;;;10.55;87.26
11049;BME280;5577;42.706;23.160;2023-05-03T05:27:54;94486.69;;;10.43;88.49
11049;BME280;5577;42.706;23.160;2023-05-03T05:30:39;94494.22;;;10.29;89.46
11049;BME280;5577;42.706;23.160;2023-05-03T05:33:23;94493.59;;;10.20;96.34
11049;BME280;5577;42.706;23.160;2023-05-03T05:36:07;94500.09;;;10.22;100.00
11049;BME280;5577;42.706;23.160;2023-05-03T05:38:51;94498.22;;;10.11;100.00
11049;BME280;5577;42.706;23.160;2023-05-03T05:41:35;94515.09;;;10.18;100.00
11049;BME280;5577;42.706;23.160;2023-05-03T05:44:20;94383.06;;;9.26;100.00
11049;BME280;5577;42.706;23.160;2023-05-03T05:47:04;94509.88;;;10.34;100.00
11049;BME280;5577;42.706;23.160;2023-05-03T05:49:49;94525.19;;;10.40;100.00
11049;BME280;5577;42.706;23.160;2023-05-03T05:52:33;94514.72;;;10.44;100.00
11049;BME280;5577;42.706;23.160;2023-05-03T05:55:18;94463.72;;;10.19;100.00
11049;BME280;5577;42.706;23.160;2023-05-03T05:58:02;94490.97;;;10.47;100.00
11049;BME280;5577;42.706;23.160;2023-05-03T06:00:46;94506.97;;;10.78;100.00
11049;BME280;5577;42.706;23.160;2023-05-03T06:03:32;94522.19;;;10.81;100.00
11049;BME280;5577;42.706;23.160;2023-05-03T06:06:16;94500.09;;;10.62;100.00
11049;BME280;5577;42.706;23.160;2023-05-03T06:09:00;94498.31;;;10.66;100.00
11049;BME280;5577;42.706;23.160;2023-05-03T06:11:44;94509.13;;;10.61;100.00
11049;BME280;5577;42.706;23.160;2023-05-03T06:14:28;94511.25;;;10.55;100.00
11049;BME280;5577;42.706;23.160;2023-05-03T06:17:12;94504.63;;;10.61;100.00
11049;BME280;5577;42.706;23.160;2023-05-03T06:19:56;94508.38;;;10.60;100.00
11049;BME280;5577;42.706;23.160;2023-05-03T06:22:41;94502.16;;;10.68;100.00
11049;BME280;5577;42.706;23.160;2023-05-03T06:25:25;94501.41;;;10.95;100.00
11049;BME280;5577;42.706;23.160;2023-05-03T06:28:08;94508.19;;;11.24;100.00
11049;BME280;5577;42.706;23.160;2023-05-03T06:30:52;94481.31;;;11.10;100.00
11049;BME280;5577;42.706;23.160;2023-05-03T06:33:36;94500.41;;;11.31;100.00
11049;BME280;5577;42.706;23.160;2023-05-03T06:36:20;94491.72;;;11.46;100.00
11049;BME280;5577;42.706;23.160;2023-05-03T06:39:05;94493.28;;;11.63;100.00
11049;BME280;5577;42.706;23.160;2023-05-03T06:41:49;94497.13;;;11.65;100.00
11049;BME280;5577;42.706;23.160;2023-05-03T06:44:33;94487.88;;;11.75;100.00
11049;BME280;5577;42.706;23.160;2023-05-03T06:47:18;94494.66;;;11.72;100.00
11049;BME280;5577;42.706;23.160;2023-05-03T06:50:03;94487.53;;;11.76;100.00
11049;BME280;5577;42.706;23.160;2023-05-03T06:52:47;94484.38;;;11.71;100.00
11049;BME280;5577;42.706;23.160;2023-05-03T06:55:31;94480.59;;;11.87;100.00
11049;BME280;5577;42.706;23.160;2023-05-03T06:58:16;94480.69;;;11.75;95.89
11049;BME280;5577;42.706;23.160;2023-05-03T07:01:00;94480.59;;;11.56;93.48
11049;BME280;5577;42.706;23.160;2023-05-03T07:03:44;94474.88;;;11.54;93.40
11049;BME280;5577;42.706;23.160;2023-05-03T07:06:29;94481.19;;;11.49;95.80
11049;BME280;5577;42.706;23.160;2023-05-03T07:09:14;94478.97;;;11.51;90.78
11049;BME280;5577;42.706;23.160;2023-05-03T07:11:58;94483.34;;;11.59;91.72
11049;BME280;5577;42.706;23.160;2023-05-03T07:14:42;94474.63;;;11.43;91.21
11049;BME280;5577;42.706;23.160;2023-05-03T07:17:26;94485.66;;;11.61;90.10
11049;BME280;5577;42.706;23.160;2023-05-03T07:20:10;94484.28;;;11.83;91.34
11049;BME280;5577;42.706;23.160;2023-05-03T07:22:55;94495.59;;;11.80;85.92
11049;BME280;5577;42.706;23.160;2023-05-03T07:25:38;94498.47;;;11.90;92.23
11049;BME280;5577;42.706;23.160;2023-05-03T07:28:23;94514.22;;;11.99;85.66
11049;BME280;5577;42.706;23.160;2023-05-03T07:31:07;94511.38;;;12.07;91.86
11049;BME280;5577;42.706;23.160;2023-05-03T07:33:51;94499.59;;;12.24;87.87
11049;BME280;5577;42.706;23.160;2023-05-03T07:36:35;94494.94;;;12.36;87.11
11049;BME280;5577;42.706;23.160;2023-05-03T07:39:19;94487.06;;;12.40;82.64
11049;BME280;5577;42.706;23.160;2023-05-03T07:42:03;94484.06;;;12.60;84.72
11049;BME280;5577;42.706;23.160;2023-05-03T07:44:47;94495.97;;;12.66;79.13
11049;BME280;5577;42.706;23.160;2023-05-03T07:47:31;94489.25;;;12.72;80.61
11049;BME280;5577;42.706;23.160;2023-05-03T07:50:17;94494.00;;;12.82;81.29
11049;BME280;5577;42.706;23.160;2023-05-03T07:53:01;94440.38;;;12.77;80.54
11049;BME280;5577;42.706;23.160;2023-05-03T07:55:45;94482.59;;;13.01;80.10
11049;BME280;5577;42.706;23.160;2023-05-03T07:58:29;94488.97;;;12.77;81.02
11049;BME280;5577;42.706;23.160;2023-05-03T08:01:14;94459.59;;;12.89;81.04
11049;BME280;5577;42.706;23.160;2023-05-03T08:03:58;94476.50;;;13.42;79.21
11049;BME280;5577;42.706;23.160;2023-05-03T08:06:43;94482.31;;;13.47;76.33
11049;BME280;5577;42.706;23.160;2023-05-03T08:09:27;94480.09;;;13.75;78.04
11049;BME280;5577;42.706;23.160;2023-05-03T08:12:12;94492.34;;;13.57;78.95
11049;BME280;5577;42.706;23.160;2023-05-03T08:14:56;94492.34;;;13.57;77.82
11049;BME280;5577;42.706;23.160;2023-05-03T08:17:41;94495.38;;;13.56;77.29
11049;BME280;5577;42.706;23.160;2023-05-03T08:20:26;94501.97;;;13.43;76.70
11049;BME280;5577;42.706;23.160;2023-05-03T08:23:10;94512.34;;;13.70;76.55
11049;BME280;5577;42.706;23.160;2023-05-03T08:25:54;94505.88;;;14.20;76.48
11049;BME280;5577;42.706;23.160;2023-05-03T08:28:39;94500.16;;;14.18;72.62
11049;BME280;5577;42.706;23.160;2023-05-03T08:31:23;94491.66;;;14.65;73.44
11049;BME280;5577;42.706;23.160;2023-05-03T08:34:08;94443.34;;;14.36;70.39
11049;BME280;5577;42.706;23.160;2023-05-03T08:36:54;94490.38;;;14.81;69.95
11049;BME280;5577;42.706;23.160;2023-05-03T08:39:37;94485.13;;;14.92;72.51
11049;BME280;5577;42.706;23.160;2023-05-03T08:42:21;94486.84;;;14.44;71.63
11049;BME280;5577;42.706;23.160;2023-05-03T08:45:09;94433.88;;;14.69;73.41
11049;BME280;5577;42.706;23.160;2023-05-03T08:47:54;94484.91;;;15.40;69.57
11049;BME280;5577;42.706;23.160;2023-05-03T08:50:38;94442.47;;;15.28;66.23
11049;BME280;5577;42.706;23.160;2023-05-03T08:53:25;94488.25;;;16.21;65.50
11049;BME280;5577;42.706;23.160;2023-05-03T08:56:10;94484.66;;;15.96;65.44
11049;BME280;5577;42.706;23.160;2023-05-03T08:58:55;94486.53;;;15.92;64.91
11049;BME280;5577;42.706;23.160;2023-05-03T09:01:46;94491.19;;;15.22;65.24
11049;BME280;5577;42.706;23.160;2023-05-03T09:04:32;94490.94;;;14.68;70.38
11049;BME280;5577;42.706;23.160;2023-05-03T09:07:19;94487.59;;;15.04;71.62
11049;BME280;5577;42.706;23.160;2023-05-03T09:10:21;94494.50;;;15.45;68.85
11049;BME280;5577;42.706;23.160;2023-05-03T09:13:06;94484.91;;;15.84;67.57
11049;BME280;5577;42.706;23.160;2023-05-03T09:15:54;94464.84;;;16.04;67.12
11049;BME280;5577;42.706;23.160;2023-05-03T09:18:39;94470.06;;;16.40;64.13
11049;BME280;5577;42.706;23.160;2023-05-03T09:21:28;94474.59;;;16.36;64.47
11049;BME280;5577;42.706;23.160;2023-05-03T09:24:23;94469.97;;;16.30;63.83
11049;BME280;5577;42.706;23.160;2023-05-03T09:27:19;94440.78;;;15.97;63.21
11049;BME280;5577;42.706;23.160;2023-05-03T09:30:17;94408.91;;;15.67;66.07
11049;BME280;5577;42.706;23.160;2023-05-03T09:33:02;94462.59;;;16.06;63.84
11049;BME280;5577;42.706;23.160;2023-05-03T09:35:57;94448.91;;;16.14;63.73
11049;BME280;5577;42.706;23.160;2023-05-03T09:38:41;94446.00;;;16.40;63.00
11049;BME280;5577;42.706;23.160;2023-05-03T09:41:29;94443.88;;;16.77;62.62
11049;BME280;5577;42.706;23.160;2023-05-03T09:44:15;94438.38;;;17.46;60.57
11049;BME280;5577;42.706;23.160;2023-05-03T09:47:06;94265.78;;;16.27;59.52
11049;BME280;5577;42.706;23.160;2023-05-03T09:49:50;94438.72;;;18.04;58.49
11049;BME280;5577;42.706;23.160;2023-05-03T09:52:34;94427.66;;;17.74;57.17
11049;BME280;5577;42.706;23.160;2023-05-03T09:55:19;94423.75;;;18.45;56.00
11049;BME280;5577;42.706;23.160;2023-05-03T09:58:05;94439.50;;;18.36;56.40
11049;BME280;5577;42.706;23.160;2023-05-03T10:00:49;94398.56;;;18.07;56.53
11049;BME280;5577;42.706;23.160;2023-05-03T10:06:35;94398.97;;;17.71;57.98
11049;BME280;5577;42.706;23.160;2023-05-03T10:09:30;94439.91;;;17.57;57.25
11049;BME280;5577;42.706;23.160;2023-05-03T10:12:15;94385.59;;;17.46;57.64
11049;BME280;5577;42.706;23.160;2023-05-03T10:15:01;94427.59;;;18.19;58.76
11049;BME280;5577;42.706;23.160;2023-05-03T10:17:51;94425.69;;;19.23;54.39
11049;BME280;5577;42.706;23.160;2023-05-03T10:21:17;94424.94;;;19.19;54.36
11049;BME280;5577;42.706;23.160;2023-05-03T10:24:12;94406.25;;;20.08;53.54
11049;BME280;5577;42.706;23.160;2023-05-03T10:26:57;94398.06;;;20.89;51.14
11049;BME280;5577;42.706;23.160;2023-05-03T10:29:45;94368.44;;;20.29;49.94
11049;BME280;5577;42.706;23.160;2023-05-03T10:32:36;94346.34;;;19.19;52.05
11049;BME280;5577;42.706;23.160;2023-05-03T10:35:27;94387.13;;;19.99;51.70
11049;BME280;5577;42.706;23.160;2023-05-03T10:38:30;94392.63;;;20.96;48.69
11049;BME280;5577;42.706;23.160;2023-05-03T10:41:23;94397.38;;;21.41;46.93
11049;BME280;5577;42.706;23.160;2023-05-03T10:44:39;94407.22;;;19.87;50.97
11049;BME280;5577;42.706;23.160;2023-05-03T10:47:34;94400.13;;;19.63;51.65
11049;BME280;5577;42.706;23.160;2023-05-03T10:53:02;94394.53;;;20.99;48.41
11049;BME280;5577;42.706;23.160;2023-05-03T10:56:02;94391.31;;;20.44;48.69
11049;BME280;5577;42.706;23.160;2023-05-03T10:58:49;94399.69;;;20.16;49.52
11049;BME280;5577;42.706;23.160;2023-05-03T11:01:34;94391.16;;;19.80;50.34
11049;BME280;5577;42.706;23.160;2023-05-03T11:04:32;94341.53;;;18.93;51.83
11049;BME280;5577;42.706;23.160;2023-05-03T11:07:19;94370.09;;;18.55;54.10
11049;BME280;5577;42.706;23.160;2023-05-03T11:10:17;94382.44;;;18.21;55.88
11049;BME280;5577;42.706;23.160;2023-05-03T11:13:01;94389.78;;;17.96;57.13
11049;BME280;5577;42.706;23.160;2023-05-03T11:15:45;94383.25;;;17.90;57.84
11049;BME280;5577;42.706;23.160;2023-05-03T11:18:30;94385.19;;;17.79;59.15
11049;BME280;5577;42.706;23.160;2023-05-03T11:21:15;94379.47;;;17.74;60.48
11049;BME280;5577;42.706;23.160;2023-05-03T11:24:00;94376.78;;;17.88;60.05
11049;BME280;5577;42.706;23.160;2023-05-03T11:26:45;94367.22;;;17.62;59.92
11049;BME280;5577;42.706;23.160;2023-05-03T11:29:29;94380.63;;;17.73;60.42
11049;BME280;5577;42.706;23.160;2023-05-03T11:32:17;94371.00;;;18.00;59.76
11049;BME280;5577;42.706;23.160;2023-05-03T11:35:02;94358.66;;;18.30;60.08
11049;BME280;5577;42.706;23.160;2023-05-03T11:37:48;94363.78;;;18.90;57.81
11049;BME280;5577;42.706;23.160;2023-05-03T11:40:32;94351.53;;;20.28;55.57
11049;BME280;5577;42.706;23.160;2023-05-03T11:43:16;94348.03;;;20.35;53.35
11049;BME280;5577;42.706;23.160;2023-05-03T11:46:00;94346.19;;;23.08;47.52
11049;BME280;5577;42.706;23.160;2023-05-03T11:48:44;94334.16;;;23.61;43.77
11049;BME280;5577;42.706;23.160;2023-05-03T11:51:29;94332.56;;;21.52;48.80
11049;BME280;5577;42.706;23.160;2023-05-03T11:54:14;94319.19;;;22.73;47.02
11049;BME280;5577;42.706;23.160;2023-05-03T11:56:58;94301.31;;;23.30;47.21
11049;BME280;5577;42.706;23.160;2023-05-03T11:59:42;94323.78;;;26.11;41.44
11049;BME280;5577;42.706;23.160;2023-05-03T12:02:27;94299.13;;;27.44;38.30
11049;BME280;5577;42.706;23.160;2023-05-03T12:05:14;94299.47;;;27.55;38.40
11049;BME280;5577;42.706;23.160;2023-05-03T12:07:58;94286.09;;;28.51;36.91
11049;BME280;5577;42.706;23.160;2023-05-03T12:10:43;94278.47;;;26.21;37.73
11049;BME280;5577;42.706;23.160;2023-05-03T12:13:31;94286.84;;;27.00;37.66
11049;BME280;5577;42.706;23.160;2023-05-03T12:16:18;94299.66;;;26.47;37.24
11049;BME280;5577;42.706;23.160;2023-05-03T12:19:03;94297.91;;;25.98;37.77
11049;BME280;5577;42.706;23.160;2023-05-03T12:21:47;94294.22;;;24.95;39.25
11049;BME280;5577;42.706;23.160;2023-05-03T12:24:31;94281.97;;;24.37;42.20
11049;BME280;5577;42.706;23.160;2023-05-03T12:27:15;94273.66;;;22.91;43.09
11049;BME280;5577;42.706;23.160;2023-05-03T12:30:00;94107.41;;;19.63;48.78
11049;BME280;5577;42.706;23.160;2023-05-03T12:32:44;94288.16;;;19.56;52.12
11049;BME280;5577;42.706;23.160;2023-05-03T12:35:28;94284.63;;;19.19;55.29
11049;BME280;5577;42.706;23.160;2023-05-03T12:38:12;94276.38;;;18.92;56.61
11049;BME280;5577;42.706;23.160;2023-05-03T12:40:56;94278.00;;;18.07;59.60
11049;BME280;5577;42.706;23.160;2023-05-03T12:43:42;94284.28;;;17.45;62.65
11049;BME280;5577;42.706;23.160;2023-05-03T12:46:26;94281.97;;;16.83;65.06
11049;BME280;5577;42.706;23.160;2023-05-03T12:49:10;94285.28;;;16.38;67.96
11049;BME280;5577;42.706;23.160;2023-05-03T12:51:54;94285.53;;;16.02;71.31
11049;BME280;5577;42.706;23.160;2023-05-03T12:54:42;94221.16;;;15.35;73.35
11049;BME280;5577;42.706;23.160;2023-05-03T12:57:29;94285.38;;;15.67;77.53
11049;BME280;5577;42.706;23.160;2023-05-03T13:00:14;94288.41;;;15.58;81.76
11049;BME280;5577;42.706;23.160;2023-05-03T13:03:00;94280.28;;;15.41;83.16
11049;BME280;5577;42.706;23.160;2023-05-03T13:05:45;94245.69;;;15.04;85.52
11049;BME280;5577;42.706;23.160;2023-05-03T13:08:29;94272.88;;;15.24;88.14
11049;BME280;5577;42.706;23.160;2023-05-03T13:11:14;94271.00;;;15.28;89.01
11049;BME280;5577;42.706;23.160;2023-05-03T13:13:59;94277.22;;;15.39;91.23
11049;BME280;5577;42.706;23.160;2023-05-03T13:16:43;94288.16;;;15.27;93.71
11049;BME280;5577;42.706;23.160;2023-05-03T13:19:28;94286.84;;;15.03;100.00
11049;BME280;5577;42.706;23.160;2023-05-03T13:22:12;94293.03;;;14.71;100.00
11049;BME280;5577;42.706;23.160;2023-05-03T13:24:56;94298.94;;;14.54;100.00
11049;BME280;5577;42.706;23.160;2023-05-03T13:27:40;94290.31;;;14.27;100.00
11049;BME280;5577;42.706;23.160;2023-05-03T13:30:24;94307.13;;;14.34;100.00
11049;BME280;5577;42.706;23.160;2023-05-03T13:33:09;94300.16;;;14.23;100.00
11049;BME280;5577;42.706;23.160;2023-05-03T13:35:53;94304.50;;;14.05;100.00
11049;BME280;5577;42.706;23.160;2023-05-03T13:38:38;94301.03;;;14.04;100.00
11049;BME280;5577;42.706;23.160;2023-05-03T13:41:24;94307.09;;;14.01;100.00
11049;BME280;5577;42.706;23.160;2023-05-03T13:44:09;94303.72;;;13.75;100.00
11049;BME280;5577;42.706;23.160;2023-05-03T13:46:54;94319.19;;;13.66;100.00
11049;BME280;5577;42.706;23.160;2023-05-03T13:49:38;94320.88;;;13.51;100.00
11049;BME280;5577;42.706;23.160;2023-05-03T13:52:23;94296.69;;;13.08;100.00
11049;BME280;5577;42.706;23.160;2023-05-03T13:55:07;94347.38;;;13.18;100.00
11049;BME280;5577;42.706;23.160;2023-05-03T13:57:51;94348.00;;;13.12;100.00
11049;BME280;5577;42.706;23.160;2023-05-03T14:00:35;94337.06;;;12.94;100.00
11049;BME280;5577;42.706;23.160;2023-05-03T14:03:19;94347.88;;;12.82;100.00
11049;BME280;5577;42.706;23.160;2023-05-03T14:06:03;94329.75;;;12.65;100.00
11049;BME280;5577;42.706;23.160;2023-05-03T14:08:48;94336.16;;;12.64;100.00
11049;BME280;5577;42.706;23.160;2023-05-03T14:11:32;94338.59;;;12.73;100.00
11049;BME280;5577;42.706;23.160;2023-05-03T14:14:16;94325.88;;;12.82;100.00
11049;BME280;5577;42.706;23.160;2023-05-03T14:17:01;94333.25;;;12.92;100.00
11049;BME280;5577;42.706;23.160;2023-05-03T14:19:45;94331.94;;;13.05;100.00
11049;BME280;5577;42.706;23.160;2023-05-03T14:22:32;94328.09;;;13.25;100.00
11049;BME280;5577;42.706;23.160;2023-05-03T14:25:16;94331.56;;;13.81;100.00
11049;BME280;5577;42.706;23.160;2023-05-03T14:28:00;94334.00;;;13.63;100.00
11049;BME280;5577;42.706;23.160;2023-05-03T14:30:44;94344.56;;;13.34;100.00
11049;BME280;5577;42.706;23.160;2023-05-03T14:33:28;94343.50;;;13.64;100.00
11049;BME280;5577;42.706;23.160;2023-05-03T14:36:12;94329.66;;;13.52;100.00
11049;BME280;5577;42.706;23.160;2023-05-03T14:38:56;94323.34;;;13.63;100.00
11049;BME280;5577;42.706;23.160;2023-05-03T14:41:40;94337.72;;;13.59;100.00
11049;BME280;5577;42.706;23.160;2023-05-03T14:44:25;94343.56;;;13.42;100.00